createdAt,value
2018-10-21T00:00:14.465Z,9.46
2018-10-21T00:02:45.386Z,9.83
2018-10-21T00:05:16.090Z,9.85
2018-10-21T00:07:47.662Z,9.85
2018-10-21T00:10:18.264Z,9.84
2018-10-21T00:12:49.330Z,9.84
2018-10-21T00:15:20.133Z,9.85
2018-10-21T00:17:51.384Z,9.86
2018-10-21T00:20:21.290Z,9.87
2018-10-21T00:22:52.121Z,9.87
2018-10-21T00:25:22.345Z,9.85
2018-10-21T00:27:53.564Z,9.81
2018-10-21T00:30:24.229Z,9.81
2018-10-21T00:32:55.116Z,9.79
2018-10-21T00:35:26.173Z,9.75
2018-10-21T00:37:56.994Z,9.71
2018-10-21T00:40:28.770Z,9.71
2018-10-21T00:42:59.250Z,9.72
2018-10-21T00:45:30.212Z,9.70
2018-10-21T00:48:01.285Z,9.67
2018-10-21T00:50:32.277Z,9.69
2018-10-21T00:53:02.987Z,9.65
2018-10-21T00:55:34.265Z,9.63
2018-10-21T00:58:05.030Z,9.62
2018-10-21T01:00:36.342Z,9.60
2018-10-21T01:03:07.531Z,9.57
2018-10-21T01:05:38.354Z,9.59
2018-10-21T01:08:09.073Z,9.60
2018-10-21T01:10:40.722Z,9.63
2018-10-21T01:13:11.165Z,9.66
2018-10-21T01:15:48.266Z,9.66
2018-10-21T01:18:18.098Z,9.66
2018-10-21T01:20:47.902Z,9.69
2018-10-21T01:23:17.845Z,9.69
2018-10-21T01:25:48.229Z,9.61
2018-10-21T01:28:18.292Z,9.67
2018-10-21T01:30:48.435Z,9.67
2018-10-21T01:33:19.078Z,9.67
2018-10-21T01:35:50.694Z,9.63
2018-10-21T01:38:21.260Z,9.62
2018-10-21T01:41:01.160Z,9.63
2018-10-21T01:43:32.253Z,9.60
2018-10-21T01:46:02.847Z,9.59
2018-10-21T01:48:33.558Z,9.61
2018-10-21T01:51:03.731Z,9.63
2018-10-21T01:53:33.776Z,9.63
2018-10-21T01:56:03.825Z,9.63
2018-10-21T01:58:33.812Z,9.61
2018-10-21T02:01:03.779Z,9.57
2018-10-21T02:03:33.677Z,9.57
2018-10-21T02:06:03.931Z,9.58
2018-10-21T02:08:34.286Z,9.58
2018-10-21T02:11:04.197Z,9.55
2018-10-21T02:13:35.119Z,9.54
2018-10-21T02:16:06.102Z,9.48
2018-10-21T02:18:37.386Z,9.48
2018-10-21T02:21:08.150Z,9.50
2018-10-21T02:23:39.121Z,9.41
2018-10-21T02:26:10.065Z,9.49
2018-10-21T02:28:41.281Z,9.50
2018-10-21T02:31:11.611Z,9.52
2018-10-21T02:33:42.241Z,9.53
2018-10-21T02:36:13.029Z,9.54
2018-10-21T02:38:44.215Z,9.55
2018-10-21T02:41:27.181Z,9.55
2018-10-21T02:43:57.081Z,9.56
2018-10-21T02:46:27.107Z,9.54
2018-10-21T02:49:04.518Z,9.55
2018-10-21T02:51:34.601Z,9.54
2018-10-21T02:54:04.742Z,9.53
2018-10-21T02:56:34.614Z,9.45
2018-10-21T02:59:04.606Z,9.40
2018-10-21T03:01:34.470Z,9.34
2018-10-21T03:04:04.887Z,9.36
2018-10-21T03:06:34.729Z,9.24
2018-10-21T03:09:06.196Z,9.28
2018-10-21T03:11:35.928Z,9.29
2018-10-21T03:14:05.991Z,9.29
2018-10-21T03:16:36.246Z,9.30
2018-10-21T03:19:06.123Z,9.32
2018-10-21T03:21:36.003Z,9.32
2018-10-21T03:24:05.862Z,9.34
2018-10-21T03:26:35.811Z,9.34
2018-10-21T03:29:06.353Z,9.34
2018-10-21T03:31:36.166Z,9.36
2018-10-21T03:34:06.780Z,9.35
2018-10-21T03:36:37.443Z,9.38
2018-10-21T03:39:10.350Z,9.38
2018-10-21T03:41:40.986Z,9.38
2018-10-21T03:44:10.918Z,9.40
2018-10-21T03:46:41.600Z,9.38
2018-10-21T03:49:12.226Z,9.23
2018-10-21T03:51:43.205Z,9.38
2018-10-21T03:54:14.096Z,9.37
2018-10-21T03:56:45.647Z,9.37
2018-10-21T03:59:17.175Z,9.38
2018-10-21T04:01:47.450Z,9.39
2018-10-21T04:04:18.209Z,9.38
2018-10-21T04:06:49.193Z,9.37
2018-10-21T04:09:20.072Z,9.38
2018-10-21T04:11:51.481Z,9.39
2018-10-21T04:14:22.000Z,9.40
2018-10-21T04:16:53.472Z,9.40
2018-10-21T04:19:23.940Z,9.42
2018-10-21T04:22:03.417Z,9.40
2018-10-21T04:24:33.678Z,9.41
2018-10-21T04:27:03.634Z,9.40
2018-10-21T04:29:33.645Z,9.39
2018-10-21T04:32:03.639Z,9.40
2018-10-21T04:34:33.662Z,9.38
2018-10-21T04:37:14.033Z,9.36
2018-10-21T04:39:54.430Z,9.35
2018-10-21T04:42:24.621Z,9.34
2018-10-21T04:44:54.653Z,9.31
2018-10-21T04:47:24.585Z,9.29
2018-10-21T04:49:54.878Z,9.28
2018-10-21T04:52:24.883Z,9.26
2018-10-21T04:54:54.764Z,9.25
2018-10-21T04:57:24.753Z,9.23
2018-10-21T04:59:54.642Z,9.22
2018-10-21T05:02:24.964Z,9.22
2018-10-21T05:04:54.860Z,9.21
2018-10-21T05:07:24.781Z,9.20
2018-10-21T05:09:54.716Z,9.18
2018-10-21T05:12:24.497Z,9.21
2018-10-21T05:14:54.489Z,9.23
2018-10-21T05:17:24.729Z,9.24
2018-10-21T05:19:54.649Z,9.28
2018-10-21T05:22:24.823Z,9.29
2018-10-21T05:24:54.706Z,9.28
2018-10-21T05:27:25.221Z,9.27
2018-10-21T05:29:55.298Z,9.26
2018-10-21T05:32:25.262Z,9.24
2018-10-21T05:34:55.254Z,9.25
2018-10-21T05:37:25.119Z,9.21
2018-10-21T05:39:54.990Z,9.20
2018-10-21T05:42:24.888Z,9.17
2018-10-21T05:44:55.361Z,9.15
2018-10-21T05:47:26.608Z,9.12
2018-10-21T05:49:57.126Z,9.12
2018-10-21T05:52:28.250Z,9.11
2018-10-21T05:54:59.134Z,9.09
2018-10-21T05:57:31.081Z,9.09
2018-10-21T06:00:01.228Z,9.08
2018-10-21T06:02:32.001Z,9.07
2018-10-21T06:05:03.253Z,9.04
2018-10-21T06:07:33.101Z,9.04
2018-10-21T06:10:05.941Z,9.05
2018-10-21T06:12:36.085Z,9.07
2018-10-21T06:15:09.355Z,9.27
2018-10-21T06:17:39.459Z,9.60
2018-10-21T06:21:18.190Z,9.50
2018-10-21T06:23:48.082Z,9.53
2018-10-21T06:26:17.970Z,9.48
2018-10-21T06:28:47.870Z,9.43
2018-10-21T06:31:17.889Z,9.42
2018-10-21T06:33:47.814Z,9.43
2018-10-21T06:36:17.789Z,9.45
2018-10-21T06:38:47.588Z,9.44
2018-10-21T06:41:17.850Z,9.46
2018-10-21T06:43:47.708Z,9.47
2018-10-21T06:46:18.506Z,9.47
2018-10-21T06:48:48.677Z,9.48
2018-10-21T06:51:18.519Z,9.50
2018-10-21T06:53:48.575Z,9.53
2018-10-21T06:56:20.231Z,9.53
2018-10-21T06:58:50.520Z,9.55
2018-10-21T07:01:20.516Z,9.58
2018-10-21T07:03:50.599Z,9.59
2018-10-21T07:06:22.594Z,9.59
2018-10-21T07:08:53.646Z,9.61
2018-10-21T07:11:23.508Z,9.56
2018-10-21T07:13:53.436Z,9.64
2018-10-21T07:16:23.822Z,9.68
2018-10-21T07:18:54.594Z,9.73
2018-10-21T07:21:24.657Z,9.77
2018-10-21T07:23:54.731Z,9.75
2018-10-21T07:26:24.692Z,9.85
2018-10-21T07:28:54.648Z,9.89
2018-10-21T07:31:24.688Z,9.97
2018-10-21T07:33:54.579Z,10.01
2018-10-21T07:36:24.620Z,10.09
2018-10-21T07:38:54.514Z,10.14
2018-10-21T07:41:24.837Z,10.17
2018-10-21T07:43:54.598Z,10.19
2018-10-21T07:46:24.464Z,10.21
2018-10-21T07:48:54.513Z,10.26
2018-10-21T07:51:24.480Z,10.30
2018-10-21T07:53:54.579Z,10.29
2018-10-21T07:56:24.552Z,10.19
2018-10-21T07:58:54.498Z,10.24
2018-10-21T08:01:24.810Z,10.28
2018-10-21T08:03:54.752Z,10.13
2018-10-21T08:06:36.658Z,10.08
2018-10-21T08:09:11.766Z,10.28
2018-10-21T08:11:41.672Z,10.19
2018-10-21T08:14:13.459Z,10.13
2018-10-21T08:16:43.631Z,10.20
2018-10-21T08:19:13.494Z,10.11
2018-10-21T08:21:43.558Z,10.19
2018-10-21T08:24:13.481Z,10.14
2018-10-21T08:26:43.601Z,10.19
2018-10-21T08:29:20.497Z,10.28
2018-10-21T08:31:50.702Z,10.23
2018-10-21T08:34:21.096Z,10.42
2018-10-21T08:36:50.822Z,10.47
2018-10-21T08:39:20.574Z,10.50
2018-10-21T08:41:50.514Z,10.52
2018-10-21T08:44:21.001Z,10.46
2018-10-21T08:46:51.017Z,10.34
2018-10-21T08:49:20.827Z,10.24
2018-10-21T08:51:50.853Z,10.35
2018-10-21T08:54:20.669Z,10.41
2018-10-21T08:56:50.770Z,10.35
2018-10-21T08:59:20.833Z,10.43
2018-10-21T09:01:50.529Z,10.31
2018-10-21T09:04:20.484Z,10.33
2018-10-21T09:06:50.671Z,10.36
2018-10-21T09:09:20.569Z,10.45
2018-10-21T09:11:50.633Z,10.51
2018-10-21T09:14:20.710Z,10.57
2018-10-21T09:16:50.579Z,10.57
2018-10-21T09:19:20.621Z,10.61
2018-10-21T09:21:50.473Z,10.57
2018-10-21T09:24:20.721Z,10.60
2018-10-21T09:26:50.917Z,10.62
2018-10-21T09:29:20.754Z,10.34
2018-10-21T09:31:50.729Z,10.28
2018-10-21T09:34:20.626Z,10.42
2018-10-21T09:36:50.741Z,10.56
2018-10-21T09:39:20.713Z,10.66
2018-10-21T09:41:55.885Z,10.74
2018-10-21T09:44:25.713Z,10.81
2018-10-21T09:47:01.401Z,10.83
2018-10-21T09:49:31.507Z,10.91
2018-10-21T09:52:01.976Z,10.97
2018-10-21T09:54:31.736Z,11.01
2018-10-21T09:57:02.337Z,11.01
2018-10-21T09:59:32.369Z,10.99
2018-10-21T10:02:07.590Z,11.01
2018-10-21T10:04:42.526Z,11.04
2018-10-21T10:07:12.658Z,11.02
2018-10-21T10:09:42.601Z,11.04
2018-10-21T10:12:13.509Z,10.90
2018-10-21T10:14:44.294Z,10.95
2018-10-21T10:17:15.635Z,11.04
2018-10-21T10:19:47.234Z,11.11
2018-10-21T10:22:18.956Z,11.20
2018-10-21T10:24:48.706Z,11.32
2018-10-21T10:27:24.718Z,11.39
2018-10-21T10:29:54.553Z,11.43
2018-10-21T10:32:24.698Z,11.48
2018-10-21T10:34:54.594Z,11.54
2018-10-21T10:37:24.616Z,11.60
2018-10-21T10:39:56.352Z,11.66
2018-10-21T10:42:27.347Z,11.75
2018-10-21T10:44:57.662Z,11.81
2018-10-21T10:47:27.594Z,11.85
2018-10-21T10:50:01.453Z,11.87
2018-10-21T10:52:31.588Z,11.89
2018-10-21T10:55:07.431Z,11.63
2018-10-21T10:57:42.736Z,11.86
2018-10-21T11:02:49.821Z,12.60
2018-10-21T11:05:19.839Z,12.71
2018-10-21T11:07:49.586Z,12.69
2018-10-21T11:10:19.624Z,12.48
2018-10-21T11:12:51.346Z,12.47
2018-10-21T11:15:23.022Z,12.42
2018-10-21T11:17:53.190Z,12.19
2018-10-21T11:20:24.342Z,12.25
2018-10-21T11:22:56.294Z,12.26
2018-10-21T11:25:28.382Z,12.32
2018-10-21T11:27:59.750Z,12.28
2018-10-21T11:30:29.998Z,12.32
2018-10-21T11:33:00.750Z,12.34
2018-10-21T11:35:31.412Z,12.37
2018-10-21T11:38:02.473Z,12.45
2018-10-21T11:40:32.607Z,12.50
2018-10-21T11:43:03.473Z,12.59
2018-10-21T11:45:35.284Z,12.63
2018-10-21T11:48:11.657Z,12.76
2018-10-21T11:50:41.854Z,12.84
2018-10-21T11:53:11.875Z,12.98
2018-10-21T11:55:42.934Z,13.35
2018-10-21T11:58:14.544Z,13.59
2018-10-21T12:00:46.585Z,13.85
2018-10-21T12:03:17.387Z,13.93
2018-10-21T12:05:47.572Z,14.23
2018-10-21T12:08:18.105Z,14.57
2018-10-21T12:10:47.916Z,14.69
2018-10-21T12:13:17.804Z,14.60
2018-10-21T12:15:47.703Z,14.48
2018-10-21T12:18:26.659Z,14.33
2018-10-21T12:21:00.910Z,14.18
2018-10-21T12:23:30.899Z,13.83
2018-10-21T12:26:00.922Z,13.84
2018-10-21T12:28:30.851Z,13.31
2018-10-21T12:31:00.725Z,13.13
2018-10-21T12:33:38.083Z,12.93
2018-10-21T12:36:09.121Z,12.97
2018-10-21T12:38:40.025Z,12.87
2018-10-21T12:41:11.138Z,12.94
2018-10-21T12:43:41.953Z,13.29
2018-10-21T12:46:12.087Z,13.69
2018-10-21T12:48:48.765Z,13.86
2018-10-21T12:51:18.853Z,13.78
2018-10-21T12:53:48.658Z,13.98
2018-10-21T12:56:18.656Z,14.30
2018-10-21T12:58:59.918Z,14.52
2018-10-21T13:01:29.749Z,14.83
2018-10-21T13:03:59.918Z,14.97
2018-10-21T13:06:29.734Z,14.94
2018-10-21T13:09:00.767Z,15.21
2018-10-21T13:11:35.801Z,15.32
2018-10-21T13:14:05.907Z,15.43
2018-10-21T13:16:35.725Z,15.52
2018-10-21T13:19:06.801Z,15.65
2018-10-21T13:21:36.916Z,15.88
2018-10-21T13:24:06.834Z,16.08
2018-10-21T13:26:36.699Z,16.25
2018-10-21T13:29:08.266Z,16.47
2018-10-21T13:31:38.333Z,16.66
2018-10-21T13:34:08.863Z,16.80
2018-10-21T13:36:38.981Z,16.85
2018-10-21T13:39:12.480Z,17.15
2018-10-21T13:41:44.829Z,17.26
2018-10-21T13:44:14.868Z,17.40
2018-10-21T13:46:44.723Z,17.50
2018-10-21T13:49:15.898Z,17.57
2018-10-21T13:51:45.972Z,17.58
2018-10-21T13:54:16.083Z,17.57
2018-10-21T13:56:45.984Z,17.60
2018-10-21T13:59:15.930Z,17.72
2018-10-21T14:01:45.939Z,17.84
2018-10-21T14:04:15.826Z,17.88
2018-10-21T14:06:45.866Z,17.86
2018-10-21T14:09:16.008Z,17.87
2018-10-21T14:11:45.810Z,17.88
2018-10-21T14:14:19.936Z,17.90
2018-10-21T14:16:49.704Z,17.72
2018-10-21T14:19:22.519Z,17.54
2018-10-21T14:21:54.557Z,17.55
2018-10-21T14:24:27.193Z,17.50
2018-10-21T14:26:58.308Z,17.47
2018-10-21T14:29:28.239Z,17.11
2018-10-21T14:31:58.099Z,16.83
2018-10-21T14:34:28.049Z,16.62
2018-10-21T14:36:58.161Z,16.43
2018-10-21T14:39:27.954Z,16.24
2018-10-21T14:42:02.192Z,16.11
2018-10-21T14:44:33.296Z,15.96
2018-10-21T14:47:03.406Z,15.80
2018-10-21T14:49:39.545Z,15.66
2018-10-21T14:52:10.475Z,15.53
2018-10-21T14:54:42.321Z,15.32
2018-10-21T14:57:14.653Z,15.31
2018-10-21T14:59:45.004Z,15.21
2018-10-21T15:02:15.017Z,15.26
2018-10-21T15:04:45.955Z,15.21
2018-10-21T15:07:15.898Z,15.00
2018-10-21T15:09:45.822Z,15.11
2018-10-21T15:12:15.934Z,15.08
2018-10-21T15:14:46.940Z,14.99
2018-10-21T15:17:16.761Z,14.92
2018-10-21T15:19:49.866Z,14.86
2018-10-21T15:22:19.762Z,14.77
2018-10-21T15:24:54.985Z,14.70
2018-10-21T15:27:24.894Z,14.60
2018-10-21T15:29:54.802Z,14.49
2018-10-21T15:32:31.428Z,14.35
2018-10-21T15:38:12.131Z,14.07
2018-10-21T15:43:30.185Z,13.85
2018-10-21T15:46:00.057Z,13.73
2018-10-21T15:48:30.750Z,13.61
2018-10-21T15:51:04.543Z,13.45
2018-10-21T15:53:35.950Z,13.33
2018-10-21T15:56:08.982Z,13.26
2018-10-21T15:58:39.383Z,13.19
2018-10-21T16:01:10.466Z,13.12
2018-10-21T16:03:45.912Z,13.01
2018-10-21T16:06:15.803Z,12.91
2018-10-21T16:08:57.978Z,12.81
2018-10-21T16:11:29.785Z,12.74
2018-10-21T16:14:02.554Z,12.63
2018-10-21T16:16:38.058Z,12.58
2018-10-21T16:21:43.425Z,12.37
2018-10-21T16:24:13.803Z,12.29
2018-10-21T16:26:43.689Z,12.20
2018-10-21T16:29:13.980Z,12.10
2018-10-21T16:31:43.932Z,12.01
2018-10-21T16:34:13.979Z,11.89
2018-10-21T16:36:49.330Z,11.80
2018-10-21T16:41:55.387Z,11.66
2018-10-21T16:44:30.881Z,11.58
2018-10-21T16:47:00.889Z,11.52
2018-10-21T16:49:30.673Z,11.44
2018-10-21T16:52:00.777Z,11.38
2018-10-21T16:54:35.912Z,11.33
2018-10-21T16:57:06.921Z,11.25
2018-10-21T16:59:37.615Z,11.16
2018-10-21T17:07:24.929Z,11.01
2018-10-21T17:09:56.279Z,10.95
2018-10-21T17:12:25.993Z,10.88
2018-10-21T17:14:56.930Z,10.84
2018-10-21T17:17:26.779Z,10.79
2018-10-21T17:25:12.763Z,10.58
2018-10-21T17:27:44.573Z,10.50
2018-10-21T17:30:23.513Z,10.41
2018-10-21T17:32:58.819Z,10.31
2018-10-21T17:38:09.869Z,10.18
2018-10-21T17:40:39.904Z,10.15
2018-10-21T17:43:09.938Z,10.06
2018-10-21T17:45:40.834Z,9.99
2018-10-21T17:48:16.711Z,9.95
2018-10-21T17:50:52.633Z,9.87
2018-10-21T17:56:04.634Z,9.75
2018-10-21T17:58:42.990Z,9.69
2018-10-21T18:01:13.887Z,9.63
2018-10-21T18:03:45.975Z,9.58
2018-10-21T18:06:15.893Z,9.53
2018-10-21T18:08:45.812Z,9.46
2018-10-21T18:11:20.847Z,9.40
2018-10-21T18:19:12.060Z,9.19
2018-10-21T18:29:28.922Z,8.91
2018-10-21T18:31:58.950Z,8.87
2018-10-21T18:34:28.892Z,8.83
2018-10-21T18:36:58.936Z,8.76
2018-10-21T18:39:29.995Z,8.73
2018-10-21T18:42:00.697Z,8.68
2018-10-21T18:44:30.893Z,8.64
2018-10-21T18:47:00.798Z,8.59
2018-10-21T18:49:34.447Z,8.53
2018-10-21T18:52:06.351Z,8.50
2018-10-21T18:54:41.891Z,8.43
2018-10-21T18:57:12.413Z,8.38
2018-10-21T18:59:49.924Z,8.29
2018-10-21T19:02:19.772Z,8.24
2018-10-21T19:04:55.922Z,8.20
2018-10-21T19:07:25.748Z,8.15
2018-10-21T19:10:00.978Z,8.10
2018-10-21T19:12:31.817Z,8.04
2018-10-21T19:15:07.737Z,7.99
2018-10-21T19:17:44.810Z,7.96
2018-10-21T19:20:16.413Z,7.95
2018-10-21T19:22:47.359Z,7.92
2018-10-21T19:25:20.078Z,7.88
2018-10-21T19:27:49.928Z,7.83
2018-10-21T19:30:21.869Z,7.79
2018-10-21T19:35:29.012Z,7.70
2018-10-21T19:37:58.737Z,7.65
2018-10-21T19:48:20.002Z,7.41
2018-10-21T19:50:49.900Z,7.34
2018-10-21T19:53:19.744Z,7.28
2018-10-21T19:55:50.729Z,7.22
2018-10-21T19:58:21.445Z,7.19
2018-10-21T20:00:52.439Z,7.14
2018-10-21T20:03:24.190Z,7.08
2018-10-21T20:08:29.356Z,6.96
2018-10-21T20:10:59.538Z,6.91
2018-10-21T20:13:35.887Z,6.88
2018-10-21T20:16:05.828Z,6.87
2018-10-21T20:18:35.778Z,6.83
2018-10-21T20:21:05.881Z,6.77
2018-10-21T20:23:35.808Z,6.73
2018-10-21T20:26:05.821Z,6.73
2018-10-21T20:28:35.639Z,6.69
2018-10-21T20:31:05.878Z,6.64
2018-10-21T20:33:35.704Z,6.61
2018-10-21T20:36:06.219Z,6.57
2018-10-21T20:38:36.358Z,6.54
2018-10-21T20:41:07.028Z,6.52
2018-10-21T20:43:36.972Z,6.48
2018-10-21T20:46:07.147Z,6.45
2018-10-21T20:48:37.604Z,6.39
2018-10-21T20:51:07.647Z,6.34
2018-10-21T20:53:37.708Z,6.30
2018-10-21T20:56:07.569Z,6.28
2018-10-21T20:58:37.681Z,6.25
2018-10-21T21:01:08.300Z,6.21
2018-10-21T21:03:38.320Z,6.17
2018-10-21T21:06:08.519Z,6.16
2018-10-21T21:08:38.355Z,6.10
2018-10-21T21:11:09.521Z,6.05
2018-10-21T21:13:39.918Z,6.03
2018-10-21T21:16:10.055Z,6.00
2018-10-21T21:18:40.279Z,5.99
2018-10-21T21:21:10.310Z,5.96
2018-10-21T21:23:40.442Z,5.95
2018-10-21T21:26:10.641Z,5.93
2018-10-21T21:28:40.802Z,5.92
2018-10-21T21:31:10.963Z,5.89
2018-10-21T21:33:41.095Z,5.86
2018-10-21T21:36:11.254Z,5.84
2018-10-21T21:38:41.428Z,5.82
2018-10-21T21:41:11.845Z,5.79
2018-10-21T21:43:41.938Z,5.76
2018-10-21T21:46:12.032Z,5.73
2018-10-21T21:48:42.300Z,5.71
2018-10-21T21:51:12.351Z,5.68
2018-10-21T21:53:42.412Z,5.65
2018-10-21T21:56:12.445Z,5.62
2018-10-21T21:58:42.520Z,5.60
2018-10-21T22:01:13.141Z,5.57
2018-10-21T22:03:43.899Z,5.55
2018-10-21T22:06:15.459Z,5.51
2018-10-21T22:08:45.983Z,5.48
2018-10-21T22:11:17.336Z,5.44
2018-10-21T22:13:47.954Z,5.41
2018-10-21T22:16:19.342Z,5.37
2018-10-21T22:18:49.997Z,5.30
2018-10-21T22:21:21.503Z,5.23
2018-10-21T22:23:52.116Z,5.17
2018-10-21T22:26:23.582Z,5.12
2018-10-21T22:28:54.011Z,5.11
2018-10-21T22:31:25.465Z,5.06
2018-10-21T22:33:56.578Z,5.03
2018-10-21T22:36:27.224Z,5.01
2018-10-21T22:38:57.860Z,4.99
2018-10-21T22:41:29.441Z,4.92
2018-10-21T22:43:59.938Z,4.90
2018-10-21T22:46:31.431Z,4.82
2018-10-21T22:49:02.086Z,4.79
2018-10-21T22:51:33.473Z,4.77
2018-10-21T22:54:04.048Z,4.76
2018-10-21T22:56:35.025Z,4.73
2018-10-21T22:59:06.293Z,4.69
2018-10-21T23:01:36.990Z,4.67
2018-10-21T23:04:08.352Z,4.66
2018-10-21T23:06:39.427Z,4.66
2018-10-21T23:09:11.734Z,4.64
2018-10-21T23:11:42.324Z,4.62
2018-10-21T23:14:12.797Z,4.60
2018-10-21T23:16:43.674Z,4.56
2018-10-21T23:19:24.618Z,4.55
2018-10-21T23:21:54.988Z,4.44
2018-10-21T23:24:25.025Z,4.54
2018-10-21T23:26:55.089Z,4.52
2018-10-21T23:29:25.121Z,4.51
2018-10-21T23:31:55.129Z,4.40
2018-10-21T23:34:25.742Z,4.47
2018-10-21T23:36:56.215Z,4.46
2018-10-21T23:39:27.083Z,4.43
2018-10-21T23:41:57.426Z,4.39
2018-10-21T23:44:27.781Z,4.36
2018-10-21T23:46:57.856Z,4.24
2018-10-21T23:49:28.122Z,4.32
2018-10-21T23:51:58.166Z,4.08
2018-10-21T23:54:28.348Z,4.16
2018-10-21T23:56:59.117Z,4.18
2018-10-21T23:59:30.170Z,3.96
